Union Center, New Jersey
Current Conditions -  °F | °C
As of 11:51 PM on Sunday 21 Dec 2014 (Local Time) from KEWR Reporting Station
Overcast Overcast  
Wind Chill: 27°   Ceiling: 3300
Heat Index: 34°   Visibility: 10mi
Dew Point: 30°   Wind: 9mph
Humidity: 85%   Direction: 10°N
Pressure: 30.34"   Gusts: NA
Location:  40.6941°N, 74.2694°W
Report Text: KEWR 220451Z 01008KT 10SM SCT015 OVC033 01/M01 A3034 RMK AO2 SLP272 T00111011 400220000
Loading
Personal Weather Stations






























Interactive Weather Map New forecast layout! Learn more

10-Day Weather Forecast

Advertisements
Track Severe Weather on mobile